Time;durP1;ratioP1;P1;durP2;ratioP2;P2;SDS_P1;SDS_P2;PMS_P1;PMS_P2;Temp;Humidity;BMP_temperature;BMP_pressure;BME280_temperature;BME280_humidity;BME280_pressure;Samples;Min_cycle;Max_cycle;Signal;HPM_P1;HPM_P2
2022/11/14 00:00:35;;;;;;;22.00;16.77;;;3.70;99.90;;;;;;5016367;28;20200;-76
2022/11/14 00:03:02;;;;;;;24.92;16.08;;;3.70;99.90;;;;;;5013816;28;20189;-76
2022/11/14 00:05:28;;;;;;;21.50;16.50;;;3.70;99.90;;;;;;5015146;28;20268;-76
2022/11/14 00:07:54;;;;;;;21.35;16.33;;;3.80;99.90;;;;;;5023974;28;20295;-75
2022/11/14 00:10:20;;;;;;;25.63;17.33;;;3.70;99.90;;;;;;5018056;28;20192;-76
2022/11/14 00:12:46;;;;;;;22.08;16.75;;;3.60;99.90;;;;;;5033808;28;20173;-76
2022/11/14 00:15:12;;;;;;;22.10;17.55;;;3.50;99.90;;;;;;5042025;28;20183;-77
2022/11/14 00:17:38;;;;;;;18.90;16.67;;;3.50;99.90;;;;;;5029502;28;20257;-77
2022/11/14 00:20:05;;;;;;;22.90;17.73;;;3.50;99.90;;;;;;5033596;28;20591;-77
2022/11/14 00:22:31;;;;;;;22.75;18.05;;;3.40;99.90;;;;;;5037054;28;20193;-77
2022/11/14 00:24:57;;;;;;;22.35;16.88;;;3.30;99.90;;;;;;5032813;28;20173;-77
2022/11/14 00:27:22;;;;;;;21.70;17.40;;;3.20;99.90;;;;;;5037815;28;20207;-77
2022/11/14 00:29:48;;;;;;;21.30;16.65;;;3.20;99.90;;;;;;5041965;28;20247;-77
2022/11/14 00:32:13;;;;;;;24.63;17.23;;;3.20;99.90;;;;;;5041737;28;20168;-77
2022/11/14 00:34:39;;;;;;;24.20;17.77;;;3.30;99.90;;;;;;5035381;28;20181;-77
2022/11/14 00:37:05;;;;;;;19.00;15.75;;;3.30;99.90;;;;;;5033862;28;20556;-77
2022/11/14 00:39:30;;;;;;;22.88;17.67;;;3.30;99.90;;;;;;5046126;28;20258;-77
2022/11/14 00:41:56;;;;;;;20.70;16.83;;;3.20;99.90;;;;;;5042979;28;20591;-77
2022/11/14 00:44:21;;;;;;;20.73;17.20;;;3.10;99.90;;;;;;5045173;28;20191;-77
2022/11/14 00:46:47;;;;;;;19.45;15.88;;;3.00;99.90;;;;;;5037167;28;20197;-77
2022/11/14 00:49:13;;;;;;;18.80;16.10;;;3.00;99.90;;;;;;5042752;28;20271;-77
2022/11/14 00:51:38;;;;;;;21.48;15.77;;;3.00;99.90;;;;;;5030309;28;20222;-77
2022/11/14 00:54:04;;;;;;;21.33;16.70;;;3.00;99.90;;;;;;5042145;28;20183;-77
2022/11/14 00:56:30;;;;;;;19.25;15.73;;;2.90;99.90;;;;;;5027962;28;20255;-76
2022/11/14 00:58:55;;;;;;;21.50;17.58;;;2.90;99.90;;;;;;5047718;28;20203;-77
2022/11/14 01:01:21;;;;;;;21.42;16.63;;;3.00;99.90;;;;;;5042616;28;20191;-77
2022/11/14 01:03:48;;;;;;;19.15;14.32;;;3.00;99.90;;;;;;5036207;28;20180;-78
2022/11/14 01:06:14;;;;;;;21.63;16.45;;;3.10;99.90;;;;;;5036714;28;20179;-77
2022/11/14 01:08:40;;;;;;;19.33;15.68;;;3.20;99.90;;;;;;5045642;28;20203;-77
2022/11/14 01:11:20;;;;;;;17.90;14.82;;;3.10;99.90;;;;;;5042814;28;20732;-78
2022/11/14 01:13:46;;;;;;;18.05;14.00;;;3.20;99.90;;;;;;5044351;28;20690;-77
2022/11/14 01:16:11;;;;;;;19.55;15.30;;;3.30;99.90;;;;;;5041058;28;20268;-77
2022/11/14 01:18:39;;;;;;;17.23;15.05;;;3.30;99.90;;;;;;5034284;28;20206;-77
2022/11/14 01:21:06;;;;;;;18.27;15.98;;;3.30;99.90;;;;;;5027487;28;20177;-78
2022/11/14 01:23:32;;;;;;;17.48;15.25;;;3.20;99.90;;;;;;5035114;28;20242;-78
2022/11/14 01:26:16;;;;;;;21.85;16.65;;;3.00;99.90;;;;;;5029101;28;20704;-78
2022/11/14 01:28:41;;;;;;;19.27;15.50;;;2.90;99.90;;;;;;5036487;28;20208;-78
2022/11/14 01:31:22;;;;;;;18.38;14.80;;;2.80;99.90;;;;;;5035486;28;20314;-77
2022/11/14 01:33:49;;;;;;;21.75;16.83;;;2.80;99.90;;;;;;5041728;28;20193;-77
2022/11/14 01:36:15;;;;;;;19.17;15.48;;;2.80;99.90;;;;;;5035033;28;20192;-77
2022/11/14 01:38:41;;;;;;;18.48;15.43;;;2.70;99.90;;;;;;5037127;28;20207;-77
2022/11/14 01:41:06;;;;;;;20.23;15.05;;;2.70;99.90;;;;;;5041453;28;20181;-76
2022/11/14 01:43:37;;;;;;;19.75;15.30;;;2.80;99.90;;;;;;5043445;28;20259;-74
2022/11/14 01:46:13;;;;;;;18.52;14.93;;;2.80;99.90;;;;;;5041394;28;20318;-74
2022/11/14 01:48:48;;;;;;;19.42;15.00;;;2.90;99.90;;;;;;5046233;28;20407;-74
2022/11/14 01:51:38;;;;;;;19.63;15.60;;;2.90;99.90;;;;;;5041369;28;20173;-75
2022/11/14 01:54:10;;;;;;;17.80;14.88;;;2.90;99.90;;;;;;5028966;28;20184;-74
2022/11/14 01:56:44;;;;;;;18.10;14.45;;;2.80;99.90;;;;;;5044142;28;20213;-74
2022/11/14 01:59:19;;;;;;;19.63;14.18;;;2.80;99.90;;;;;;5043196;28;20665;-74
2022/11/14 02:01:50;;;;;;;20.15;15.35;;;2.80;99.90;;;;;;5029760;28;20679;-74
2022/11/14 02:04:26;;;;;;;18.67;14.95;;;2.70;99.90;;;;;;5025778;28;20557;-73
2022/11/14 02:06:57;;;;;;;17.90;14.60;;;2.70;99.90;;;;;;5019701;28;20287;-74
2022/11/14 02:09:23;;;;;;;19.73;14.80;;;2.70;99.90;;;;;;5018547;28;20273;-74
2022/11/14 02:11:50;;;;;;;19.55;15.20;;;2.70;99.90;;;;;;5032335;28;20179;-74
2022/11/14 02:14:16;;;;;;;17.48;13.95;;;2.70;99.90;;;;;;5045046;28;20179;-74
2022/11/14 02:16:42;;;;;;;18.63;15.10;;;2.60;99.90;;;;;;5040145;28;20168;-74
2022/11/14 02:19:08;;;;;;;16.60;13.63;;;2.60;99.90;;;;;;5037097;28;20196;-74
2022/11/14 02:21:35;;;;;;;17.40;13.73;;;2.60;99.90;;;;;;5033890;28;20263;-74
2022/11/14 02:24:00;;;;;;;16.08;13.52;;;2.60;99.90;;;;;;5031957;28;20172;-75
2022/11/14 02:26:26;;;;;;;18.40;15.25;;;2.60;99.90;;;;;;5034593;28;20301;-74
2022/11/14 02:28:55;;;;;;;17.48;14.38;;;2.50;99.90;;;;;;5032091;28;20208;-75
2022/11/14 02:31:21;;;;;;;18.63;14.50;;;2.50;99.90;;;;;;5047481;28;20174;-75
2022/11/14 02:33:46;;;;;;;17.88;14.60;;;2.50;99.90;;;;;;5038939;28;20259;-75
2022/11/14 02:36:12;;;;;;;15.35;13.00;;;2.50;99.90;;;;;;5045334;28;20176;-74
2022/11/14 02:38:37;;;;;;;18.25;13.60;;;2.50;99.90;;;;;;5040481;28;20724;-74
2022/11/14 02:41:03;;;;;;;18.15;14.20;;;2.50;99.90;;;;;;5034871;28;20196;-74
2022/11/14 02:43:28;;;;;;;18.73;14.07;;;2.40;99.90;;;;;;5026838;28;20220;-73
2022/11/14 02:45:54;;;;;;;17.50;14.47;;;2.40;99.90;;;;;;5043452;28;20222;-73
2022/11/14 02:48:20;;;;;;;19.30;15.77;;;2.40;99.90;;;;;;5038520;28;20684;-73
2022/11/14 02:50:48;;;;;;;18.58;13.43;;;2.40;99.90;;;;;;5043543;28;20183;-73
2022/11/14 02:53:13;;;;;;;16.85;12.80;;;2.40;99.90;;;;;;5029640;28;20191;-73
2022/11/14 02:55:39;;;;;;;14.23;12.50;;;2.40;99.90;;;;;;5042457;28;20557;-74
2022/11/14 02:58:05;;;;;;;19.02;13.20;;;2.50;99.90;;;;;;5041631;28;20290;-74
2022/11/14 03:00:30;;;;;;;16.55;13.07;;;2.60;99.90;;;;;;5027923;28;20180;-73
2022/11/14 03:02:56;;;;;;;14.43;12.57;;;2.70;99.90;;;;;;5030588;28;20561;-73
2022/11/14 03:08:44;;;;;;;16.65;14.07;;;2.50;99.90;;;;;;5017443;28;20840;-73
2022/11/14 03:11:10;;;;;;;15.50;13.07;;;2.50;99.90;;;;;;5031205;28;20181;-72
2022/11/14 03:13:35;;;;;;;16.10;13.50;;;2.50;99.90;;;;;;5040212;28;20263;-72
2022/11/14 03:16:09;;;;;;;19.38;14.13;;;2.40;99.90;;;;;;5037967;28;20264;-72
2022/11/14 03:18:35;;;;;;;23.30;16.95;;;2.40;99.90;;;;;;5034038;28;20250;-72
2022/11/14 03:21:06;;;;;;;21.35;15.45;;;2.50;99.90;;;;;;5039796;28;20184;-73
2022/11/14 03:23:32;;;;;;;20.00;14.90;;;2.40;99.90;;;;;;5034535;28;20185;-73
2022/11/14 03:26:01;;;;;;;20.30;15.25;;;2.40;99.90;;;;;;5040867;28;20613;-73
2022/11/14 03:28:27;;;;;;;15.43;12.50;;;2.40;99.90;;;;;;5029692;28;20633;-73
2022/11/14 03:30:52;;;;;;;15.43;12.63;;;2.40;99.90;;;;;;5038511;28;20190;-73
2022/11/14 03:33:18;;;;;;;19.65;14.90;;;2.50;99.90;;;;;;5040433;28;20662;-72
2022/11/14 03:35:44;;;;;;;17.60;13.90;;;2.40;99.90;;;;;;5043600;28;20635;-73
2022/11/14 03:38:09;;;;;;;17.97;14.27;;;2.40;99.90;;;;;;5043604;28;20241;-73
2022/11/14 03:40:39;;;;;;;14.13;12.50;;;2.40;99.90;;;;;;5040454;28;20567;-73
2022/11/14 03:43:04;;;;;;;15.80;13.03;;;2.30;99.90;;;;;;5029365;28;20176;-73
2022/11/14 03:45:30;;;;;;;12.00;10.77;;;2.30;99.90;;;;;;5030124;28;20191;-73
2022/11/14 03:47:55;;;;;;;12.03;10.17;;;2.20;99.90;;;;;;5031973;28;20293;-73
2022/11/14 03:50:21;;;;;;;13.40;10.73;;;2.20;99.90;;;;;;5041791;28;20176;-73
2022/11/14 03:52:49;;;;;;;14.63;11.47;;;2.20;99.90;;;;;;5030901;28;20176;-73
2022/11/14 03:55:15;;;;;;;12.50;11.13;;;2.20;99.90;;;;;;5041249;28;20208;-74
2022/11/14 03:57:41;;;;;;;14.27;11.15;;;2.20;99.90;;;;;;5040255;28;20238;-74
2022/11/14 04:00:07;;;;;;;11.33;9.13;;;2.20;99.90;;;;;;5029569;28;20579;-74
2022/11/14 04:02:33;;;;;;;11.40;9.60;;;2.20;99.90;;;;;;5039045;28;20196;-74
2022/11/14 04:04:58;;;;;;;11.57;10.37;;;2.20;99.90;;;;;;5040408;28;20199;-74
2022/11/14 04:07:24;;;;;;;12.13;10.47;;;2.10;99.90;;;;;;5044640;28;20243;-74
2022/11/14 04:09:50;;;;;;;12.37;10.33;;;2.10;99.90;;;;;;5032214;28;20213;-74
2022/11/14 04:12:16;;;;;;;11.57;10.10;;;2.10;99.90;;;;;;5030463;28;20183;-74
2022/11/14 04:14:42;;;;;;;11.67;9.63;;;2.10;99.90;;;;;;5027517;28;20543;-74
2022/11/14 04:17:08;;;;;;;11.10;9.20;;;2.10;99.90;;;;;;5028597;28;20189;-74
2022/11/14 04:19:34;;;;;;;11.80;10.07;;;2.20;99.90;;;;;;5044358;28;20295;-73
2022/11/14 04:22:00;;;;;;;13.07;11.30;;;2.10;99.90;;;;;;5029258;28;20176;-74
2022/11/14 04:24:25;;;;;;;16.33;12.10;;;2.10;99.90;;;;;;5039729;28;20223;-74
2022/11/14 04:26:51;;;;;;;15.63;11.70;;;2.00;99.90;;;;;;5035175;28;20563;-74
2022/11/14 04:29:16;;;;;;;15.67;13.20;;;2.00;99.90;;;;;;5034611;28;20334;-74
2022/11/14 04:31:42;;;;;;;14.63;11.73;;;2.00;99.90;;;;;;5042683;28;20188;-75
2022/11/14 04:34:08;;;;;;;14.13;11.47;;;2.00;99.90;;;;;;5041521;28;20334;-75
2022/11/14 04:36:33;;;;;;;14.60;11.90;;;2.00;99.90;;;;;;5037247;28;20172;-74
2022/11/14 04:38:59;;;;;;;14.83;12.33;;;2.00;99.90;;;;;;5042642;28;20218;-74
2022/11/14 04:41:25;;;;;;;21.23;14.00;;;1.90;99.90;;;;;;5047665;28;20180;-74
2022/11/14 04:43:50;;;;;;;15.07;12.50;;;1.90;99.90;;;;;;5038488;28;20690;-74
2022/11/14 04:46:16;;;;;;;13.23;11.83;;;2.00;99.90;;;;;;5032628;28;20196;-74
2022/11/14 04:48:41;;;;;;;15.93;11.93;;;2.10;99.90;;;;;;5040471;28;20220;-74
2022/11/14 04:51:07;;;;;;;13.73;11.98;;;2.20;99.90;;;;;;5050078;28;20176;-75
2022/11/14 04:53:32;;;;;;;15.47;11.37;;;2.30;99.90;;;;;;5039530;28;20181;-74
2022/11/14 04:55:58;;;;;;;18.53;12.93;;;2.30;99.90;;;;;;5044143;28;20183;-74
2022/11/14 04:58:24;;;;;;;14.20;11.80;;;2.30;99.90;;;;;;5039059;28;20213;-75
2022/11/14 05:00:49;;;;;;;16.17;12.40;;;2.30;99.90;;;;;;5038097;28;20188;-75
2022/11/14 05:03:15;;;;;;;16.10;13.33;;;2.20;99.90;;;;;;5034222;28;20272;-74
2022/11/14 05:05:40;;;;;;;15.60;12.77;;;2.20;99.90;;;;;;5036573;28;20191;-74
2022/11/14 05:08:06;;;;;;;15.63;12.47;;;2.10;99.90;;;;;;5037067;28;20209;-74
2022/11/14 05:10:32;;;;;;;14.93;12.27;;;2.00;99.90;;;;;;5046222;28;20181;-74
2022/11/14 05:12:57;;;;;;;15.73;12.07;;;2.00;99.90;;;;;;5045433;28;20175;-74
2022/11/14 05:15:23;;;;;;;12.77;10.87;;;2.00;99.90;;;;;;5041392;28;20180;-74
2022/11/14 05:17:48;;;;;;;14.20;11.33;;;2.00;99.90;;;;;;5045865;28;20695;-74
2022/11/14 05:20:14;;;;;;;15.87;12.63;;;2.10;99.90;;;;;;5028134;28;20221;-75
2022/11/14 05:22:40;;;;;;;14.67;12.00;;;2.10;99.90;;;;;;5033807;28;20188;-73
2022/11/14 05:25:06;;;;;;;13.63;11.83;;;2.00;99.90;;;;;;5041469;28;20179;-74
2022/11/14 05:27:31;;;;;;;14.30;11.90;;;1.90;99.90;;;;;;5019443;28;20212;-74
2022/11/14 05:29:57;;;;;;;14.57;11.37;;;1.90;99.90;;;;;;5022091;28;20181;-74
2022/11/14 05:32:23;;;;;;;15.30;11.50;;;2.00;99.90;;;;;;5020078;28;20183;-74
2022/11/14 05:34:48;;;;;;;14.50;11.93;;;2.00;99.90;;;;;;5018669;28;20316;-75
2022/11/14 05:37:14;;;;;;;13.47;12.00;;;1.90;99.90;;;;;;5025444;28;20207;-74
2022/11/14 05:39:39;;;;;;;15.60;12.37;;;2.00;99.90;;;;;;5022670;28;20214;-74
2022/11/14 05:42:05;;;;;;;15.07;12.03;;;2.00;99.90;;;;;;5037609;28;20268;-73
2022/11/14 05:44:31;;;;;;;13.97;11.53;;;2.00;99.90;;;;;;5019371;28;20231;-73
2022/11/14 05:46:57;;;;;;;14.47;12.50;;;1.90;99.90;;;;;;5020007;28;20251;-73
2022/11/14 05:49:22;;;;;;;14.37;12.37;;;1.80;99.90;;;;;;5022597;28;20200;-73
2022/11/14 05:51:48;;;;;;;14.83;11.80;;;1.70;99.90;;;;;;5017696;28;20185;-73
2022/11/14 05:54:14;;;;;;;15.93;12.33;;;1.70;99.90;;;;;;5021660;28;20185;-73
2022/11/14 05:56:39;;;;;;;13.57;11.33;;;1.80;99.90;;;;;;5018971;28;20224;-73
2022/11/14 05:59:05;;;;;;;16.17;12.10;;;1.70;99.90;;;;;;5034071;28;20231;-73
2022/11/14 06:01:31;;;;;;;13.90;11.43;;;1.80;99.90;;;;;;5020984;28;20185;-73
2022/11/14 06:03:56;;;;;;;13.77;12.27;;;1.70;99.90;;;;;;5022183;28;20189;-73
2022/11/14 06:06:22;;;;;;;15.50;11.97;;;1.80;99.90;;;;;;5024987;28;20195;-73
2022/11/14 06:08:48;;;;;;;14.60;13.00;;;1.80;99.90;;;;;;5018383;28;20212;-73
2022/11/14 06:11:20;;;;;;;15.03;12.77;;;1.80;99.90;;;;;;5021728;28;20207;-72
2022/11/14 06:13:46;;;;;;;19.67;13.63;;;1.80;99.90;;;;;;5022168;28;20535;-73
2022/11/14 06:16:14;;;;;;;14.00;12.00;;;1.80;99.90;;;;;;5023785;28;20196;-73
2022/11/14 06:18:40;;;;;;;13.80;11.90;;;1.80;99.90;;;;;;5017925;28;20216;-74
2022/11/14 06:21:15;;;;;;;13.10;11.73;;;1.90;99.90;;;;;;5025733;28;20186;-74
2022/11/14 06:23:40;;;;;;;14.67;11.93;;;2.00;99.90;;;;;;5024239;28;20210;-74
2022/11/14 06:26:15;;;;;;;17.93;11.53;;;2.00;99.90;;;;;;5014979;28;20254;-74
2022/11/14 06:28:40;;;;;;;16.33;12.93;;;1.90;99.90;;;;;;5009787;28;20251;-74
2022/11/14 06:31:06;;;;;;;16.60;12.57;;;1.90;99.90;;;;;;5007892;28;20653;-73
2022/11/14 06:33:36;;;;;;;14.30;12.47;;;1.90;99.90;;;;;;5007087;28;20267;-75
2022/11/14 06:36:04;;;;;;;14.17;12.30;;;1.80;99.90;;;;;;5004588;28;20247;-75
2022/11/14 06:38:31;;;;;;;14.73;12.40;;;1.80;99.90;;;;;;5007129;28;20567;-75
2022/11/14 06:41:14;;;;;;;16.20;12.63;;;1.90;99.90;;;;;;5010878;28;20290;-74
2022/11/14 06:43:42;;;;;;;14.43;12.60;;;1.90;99.90;;;;;;5033358;28;20716;-74
2022/11/14 06:46:10;;;;;;;12.60;11.05;;;2.00;99.90;;;;;;5042834;28;20172;-72
2022/11/14 06:48:36;;;;;;;14.23;12.60;;;2.00;99.90;;;;;;5037554;28;20242;-73
2022/11/14 06:51:03;;;;;;;16.50;13.33;;;2.10;99.90;;;;;;5039686;28;20655;-73
2022/11/14 06:53:31;;;;;;;17.43;13.10;;;2.10;99.90;;;;;;5018114;28;20182;-73
2022/11/14 06:56:02;;;;;;;16.60;12.90;;;2.20;99.90;;;;;;5032828;28;20180;-74
2022/11/14 06:58:33;;;;;;;16.83;12.55;;;2.30;99.90;;;;;;5031881;28;20575;-73
2022/11/14 07:01:07;;;;;;;16.30;12.85;;;2.30;99.90;;;;;;5031533;28;20184;-74
2022/11/14 07:03:33;;;;;;;15.63;12.70;;;2.40;99.90;;;;;;5041327;28;20176;-75
2022/11/14 07:06:03;;;;;;;15.20;11.90;;;2.50;99.90;;;;;;5043361;28;20276;-75
2022/11/14 07:08:29;;;;;;;14.68;10.88;;;2.60;99.90;;;;;;5032310;28;20299;-75
2022/11/14 07:11:04;;;;;;;12.45;10.23;;;2.70;99.90;;;;;;5042322;28;20191;-75
2022/11/14 07:13:30;;;;;;;13.88;12.15;;;2.80;99.90;;;;;;5021599;28;20632;-74
2022/11/14 07:15:56;;;;;;;12.90;11.40;;;2.90;99.90;;;;;;5015697;28;20185;-75
2022/11/14 07:18:22;;;;;;;11.88;10.40;;;3.00;99.90;;;;;;5032299;28;20204;-74
2022/11/14 07:20:47;;;;;;;13.45;11.38;;;3.10;99.90;;;;;;5046592;28;20189;-73
2022/11/14 07:23:14;;;;;;;13.05;10.70;;;3.10;99.90;;;;;;5032001;28;20187;-73
2022/11/14 07:25:40;;;;;;;14.23;9.68;;;3.30;99.90;;;;;;5039404;28;20618;-73
2022/11/14 07:28:05;;;;;;;13.57;10.40;;;3.40;99.90;;;;;;5036308;28;20573;-73
2022/11/14 07:30:33;;;;;;;11.40;9.57;;;3.60;99.90;;;;;;5032958;28;20183;-73
2022/11/14 07:32:59;;;;;;;11.10;9.93;;;3.60;99.90;;;;;;5031593;28;20238;-73
2022/11/14 07:35:25;;;;;;;12.30;10.52;;;3.80;99.90;;;;;;5039068;28;20234;-73
2022/11/14 07:37:51;;;;;;;12.65;9.82;;;3.80;99.90;;;;;;5025589;28;20213;-72
2022/11/14 07:40:17;;;;;;;10.40;9.25;;;4.00;99.90;;;;;;5021680;28;20189;-72
2022/11/14 07:42:42;;;;;;;11.55;9.43;;;4.20;99.90;;;;;;5024725;28;20654;-72
2022/11/14 07:45:09;;;;;;;10.85;9.20;;;4.40;99.90;;;;;;5036645;28;20189;-73
2022/11/14 07:47:35;;;;;;;10.52;9.40;;;4.40;99.90;;;;;;5015388;28;20205;-72
2022/11/14 07:50:02;;;;;;;10.73;8.73;;;4.50;99.90;;;;;;5036493;28;20617;-73
2022/11/14 07:52:30;;;;;;;11.85;10.18;;;4.70;99.90;;;;;;5033334;28;20176;-75
2022/11/14 07:54:55;;;;;;;11.52;10.32;;;4.80;99.90;;;;;;5038381;28;20176;-75
2022/11/14 07:57:21;;;;;;;12.43;9.50;;;4.80;99.90;;;;;;5044546;28;20859;-75
2022/11/14 07:59:47;;;;;;;11.15;10.02;;;4.90;99.90;;;;;;5021111;28;20179;-77
2022/11/14 08:02:14;;;;;;;11.25;9.73;;;5.00;99.90;;;;;;5037203;28;20238;-73
2022/11/14 08:04:40;;;;;;;11.90;10.05;;;5.20;99.90;;;;;;5043738;28;20180;-71
2022/11/14 08:07:06;;;;;;;11.88;9.73;;;5.40;99.90;;;;;;5034237;28;20169;-71
2022/11/14 08:09:31;;;;;;;12.43;9.20;;;5.50;99.90;;;;;;5018293;28;20215;-73
2022/11/14 08:11:57;;;;;;;9.98;8.93;;;5.60;99.90;;;;;;5018309;28;20173;-73
2022/11/14 08:14:23;;;;;;;11.48;9.02;;;5.70;99.90;;;;;;5023010;28;20269;-73
2022/11/14 08:16:49;;;;;;;11.88;9.10;;;5.90;99.90;;;;;;5016485;28;20211;-73
2022/11/14 08:19:15;;;;;;;11.20;9.25;;;6.00;99.90;;;;;;5030519;28;20216;-74
2022/11/14 08:21:41;;;;;;;9.27;8.38;;;6.00;99.90;;;;;;5039181;28;20251;-74
2022/11/14 08:24:07;;;;;;;9.95;8.68;;;6.10;99.90;;;;;;5017398;28;20745;-74
2022/11/14 08:26:33;;;;;;;9.05;8.13;;;6.20;99.90;;;;;;5013701;28;20232;-74
2022/11/14 08:28:59;;;;;;;10.27;8.43;;;6.10;99.90;;;;;;5022810;28;20272;-74
2022/11/14 08:31:24;;;;;;;12.65;8.70;;;6.20;99.90;;;;;;5021341;28;20538;-72
2022/11/14 08:33:51;;;;;;;11.00;9.15;;;6.20;99.90;;;;;;5031335;28;20204;-73
2022/11/14 08:36:17;;;;;;;9.40;8.38;;;6.30;99.90;;;;;;5036403;28;20659;-73
2022/11/14 08:38:43;;;;;;;12.25;9.25;;;6.40;99.90;;;;;;5033521;28;20235;-73
2022/11/14 08:41:08;;;;;;;10.90;9.13;;;6.50;99.90;;;;;;5037453;28;20173;-74
2022/11/14 08:43:34;;;;;;;10.45;9.32;;;6.50;99.90;;;;;;5032561;28;20696;-74
2022/11/14 08:46:01;;;;;;;12.90;9.18;;;6.60;99.90;;;;;;5028823;28;20189;-75
2022/11/14 08:48:27;;;;;;;9.63;8.73;;;6.70;99.90;;;;;;5027197;28;20682;-74
2022/11/14 08:50:52;;;;;;;13.15;9.38;;;6.90;99.90;;;;;;5032018;28;20181;-75
2022/11/14 08:53:18;;;;;;;11.00;9.30;;;7.00;99.90;;;;;;5042545;28;20185;-75
2022/11/14 08:55:45;;;;;;;14.50;8.85;;;7.10;99.90;;;;;;5028278;28;20191;-74
2022/11/14 08:58:11;;;;;;;12.07;8.80;;;7.20;99.90;;;;;;5038698;28;20212;-75
2022/11/14 09:00:37;;;;;;;11.77;8.20;;;7.40;99.90;;;;;;5031787;28;20188;-73
2022/11/14 09:03:12;;;;;;;9.27;8.27;;;7.60;99.90;;;;;;5037498;28;20172;-73
2022/11/14 09:05:37;;;;;;;10.10;7.90;;;7.90;99.90;;;;;;5031932;28;20184;-75
2022/11/14 09:08:03;;;;;;;10.15;8.02;;;8.20;99.90;;;;;;5021639;28;20571;-75
2022/11/14 09:10:29;;;;;;;8.40;7.65;;;8.60;99.90;;;;;;5043295;28;20180;-77
2022/11/14 09:12:59;;;;;;;8.15;7.35;;;9.40;99.90;;;;;;5029643;28;20181;-76
2022/11/14 09:15:29;;;;;;;7.70;6.90;;;10.00;99.90;;;;;;5036980;28;20176;-78
2022/11/14 09:17:56;;;;;;;7.38;6.68;;;11.40;99.90;;;;;;5040819;28;20269;-77
2022/11/14 09:20:22;;;;;;;6.95;6.25;;;13.60;99.90;;;;;;5041261;28;20291;-77
2022/11/14 09:22:51;;;;;;;6.53;5.93;;;15.80;99.90;;;;;;5033509;28;20262;-77
2022/11/14 09:25:16;;;;;;;6.22;5.60;;;17.60;99.90;;;;;;5032515;28;20191;-77
2022/11/14 09:27:42;;;;;;;5.47;5.07;;;19.20;99.10;;;;;;5021064;28;20212;-76
2022/11/14 09:30:09;;;;;;;5.43;4.88;;;20.30;92.40;;;;;;5035146;28;20584;-76
2022/11/14 09:32:34;;;;;;;5.50;5.00;;;21.50;89.30;;;;;;5041105;28;20207;-79
2022/11/14 09:35:00;;;;;;;5.68;5.22;;;22.40;79.10;;;;;;5038950;28;20168;-77
2022/11/14 09:37:26;;;;;;;5.50;5.10;;;23.30;74.00;;;;;;5030782;28;20187;-77
2022/11/14 09:39:51;;;;;;;6.22;5.70;;;24.10;71.50;;;;;;5027284;28;20283;-78
2022/11/14 09:42:35;;;;;;;5.38;4.97;;;24.70;67.50;;;;;;5044059;28;20187;-78
2022/11/14 09:45:11;;;;;;;7.55;5.25;;;25.00;65.80;;;;;;5036761;28;20174;-79
2022/11/14 09:47:42;;;;;;;5.38;4.97;;;25.60;61.60;;;;;;5029315;28;20207;-80
2022/11/14 09:50:21;;;;;;;5.63;5.22;;;25.40;61.10;;;;;;5035799;28;20713;-77
2022/11/14 09:52:56;;;;;;;7.15;4.82;;;25.60;59.20;;;;;;5050407;28;20175;-80
2022/11/14 09:55:30;;;;;;;5.60;4.40;;;25.70;59.10;;;;;;5031397;28;20257;-80
2022/11/14 09:57:56;;;;;;;5.32;4.93;;;25.50;59.00;;;;;;5040660;28;20203;-79
2022/11/14 10:00:24;;;;;;;6.50;4.88;;;26.00;57.90;;;;;;5034118;28;20281;-79
2022/11/14 10:03:23;;;;;;;5.30;4.80;;;26.50;56.10;;;;;;5029166;28;20188;-78
2022/11/14 10:05:57;;;;;;;5.20;4.70;;;26.80;55.40;;;;;;5034768;28;20533;-79
2022/11/14 10:08:37;;;;;;;4.50;3.85;;;27.50;54.80;;;;;;5016929;28;20217;-79
2022/11/14 10:11:15;;;;;;;4.97;4.57;;;27.90;53.30;;;;;;5040764;28;20204;-79
2022/11/14 10:13:58;;;;;;;4.82;4.32;;;28.50;52.90;;;;;;5034235;28;20185;-79
2022/11/14 10:16:51;;;;;;;5.05;4.70;;;29.00;51.60;;;;;;5015243;28;20185;-76
2022/11/14 10:19:39;;;;;;;4.30;4.03;;;29.50;50.80;;;;;;5019168;28;20346;-76
2022/11/14 10:22:18;;;;;;;5.43;4.22;;;29.70;49.70;;;;;;5015641;28;20177;-76
2022/11/14 10:24:59;;;;;;;4.88;4.47;;;30.20;49.30;;;;;;5013112;28;20177;-76
2022/11/14 10:27:30;;;;;;;4.10;3.80;;;30.30;48.60;;;;;;5013682;28;20569;-76
2022/11/14 10:29:55;;;;;;;5.63;3.78;;;30.70;48.40;;;;;;5013998;28;20170;-76
2022/11/14 10:32:28;;;;;;;4.03;3.63;;;31.00;47.30;;;;;;5020558;28;20191;-76
2022/11/14 10:35:09;;;;;;;3.35;3.15;;;30.80;46.90;;;;;;5013941;28;20200;-76
2022/11/14 10:37:36;;;;;;;3.70;3.40;;;31.00;47.60;;;;;;5023054;28;20208;-76
2022/11/14 10:40:29;;;;;;;3.60;3.30;;;31.30;46.60;;;;;;5039265;28;20183;-75
2022/11/14 10:43:02;;;;;;;4.00;3.55;;;31.50;45.50;;;;;;5020008;28;20227;-75
2022/11/14 10:45:34;;;;;;;3.65;3.35;;;31.40;45.60;;;;;;5033877;28;20190;-76
2022/11/14 10:48:22;;;;;;;3.40;3.13;;;31.70;45.60;;;;;;5028427;28;20260;-75
2022/11/14 10:50:54;;;;;;;3.25;3.05;;;31.80;44.80;;;;;;5029754;28;20276;-75
2022/11/14 10:53:32;;;;;;;3.38;3.15;;;32.10;44.30;;;;;;5033363;28;20183;-76
2022/11/14 10:55:58;;;;;;;3.38;3.17;;;31.70;44.20;;;;;;5029906;28;20181;-75
2022/11/14 10:58:24;;;;;;;3.50;3.30;;;31.10;45.10;;;;;;5034378;28;20204;-75
2022/11/14 11:00:49;;;;;;;3.50;3.30;;;30.50;45.90;;;;;;5026427;28;20549;-76
2022/11/14 11:03:15;;;;;;;3.85;3.65;;;30.40;46.20;;;;;;5041001;28;20195;-75
2022/11/14 11:05:59;;;;;;;3.53;3.33;;;29.90;46.30;;;;;;5034204;28;20180;-76
2022/11/14 11:11:36;;;;;;;3.45;3.25;;;29.70;47.00;;;;;;5035605;28;20187;-75
2022/11/14 11:14:02;;;;;;;3.67;3.47;;;30.60;46.30;;;;;;5028906;28;20204;-76
2022/11/14 11:16:28;;;;;;;3.65;3.35;;;30.70;45.90;;;;;;5043911;28;20685;-75
2022/11/14 11:19:22;;;;;;;3.85;3.55;;;30.70;45.90;;;;;;5041359;28;20199;-76
2022/11/14 11:21:51;;;;;;;3.97;3.67;;;30.60;45.80;;;;;;5036404;28;20558;-75
2022/11/14 11:24:35;;;;;;;3.30;3.10;;;30.40;46.40;;;;;;5031106;28;20678;-76
2022/11/14 11:27:37;;;;;;;3.22;3.03;;;30.80;45.90;;;;;;5042484;28;20194;-75
2022/11/14 11:30:24;;;;;;;5.40;3.60;;;31.20;45.50;;;;;;5036323;28;20174;-75
2022/11/14 11:32:49;;;;;;;4.00;3.70;;;31.10;44.80;;;;;;5033088;28;20184;-75
2022/11/14 11:35:16;;;;;;;3.28;3.08;;;31.10;45.20;;;;;;5038577;28;20180;-76
2022/11/14 11:37:58;;;;;;;3.58;3.28;;;31.30;45.20;;;;;;5034852;28;20690;-77
2022/11/14 11:40:28;;;;;;;4.30;3.95;;;31.90;44.70;;;;;;5034345;28;20190;-75
2022/11/14 11:43:23;;;;;;;3.78;3.50;;;32.40;44.10;;;;;;5038495;28;20171;-79
2022/11/14 11:45:52;;;;;;;3.75;3.55;;;32.40;44.00;;;;;;5014242;28;20436;-74
2022/11/14 11:48:19;;;;;;;4.10;3.80;;;31.20;44.80;;;;;;5021521;28;20216;-74
2022/11/14 11:50:46;;;;;;;3.83;3.50;;;30.10;46.50;;;;;;5039089;28;20171;-74
2022/11/14 11:53:38;;;;;;;3.78;3.47;;;29.30;47.70;;;;;;5032856;28;20176;-75
2022/11/14 11:56:12;;;;;;;3.90;3.60;;;27.60;49.60;;;;;;5025691;28;20259;-76
2022/11/14 11:58:48;;;;;;;3.65;3.45;;;26.30;51.50;;;;;;5043059;28;20206;-77
2022/11/14 12:01:14;;;;;;;4.50;4.20;;;25.40;53.70;;;;;;5038996;28;20762;-77
2022/11/14 12:03:44;;;;;;;4.50;3.88;;;24.90;54.50;;;;;;5036892;28;20286;-75
2022/11/14 12:06:23;;;;;;;4.50;4.10;;;24.80;55.30;;;;;;5039987;28;20177;-76
2022/11/14 12:09:13;;;;;;;4.28;3.97;;;24.90;55.40;;;;;;5038626;28;20669;-75
2022/11/14 12:11:44;;;;;;;4.00;3.75;;;25.00;55.00;;;;;;5027937;28;20275;-77
2022/11/14 12:14:33;;;;;;;4.53;4.13;;;25.00;55.00;;;;;;5040437;28;20204;-77
2022/11/14 12:17:20;;;;;;;4.82;4.43;;;24.40;55.70;;;;;;5039765;28;20177;-75
2022/11/14 12:20:08;;;;;;;4.20;3.80;;;24.10;56.40;;;;;;5022768;28;20184;-77
2022/11/14 12:23:05;;;;;;;4.40;4.00;;;24.10;56.90;;;;;;5021972;28;20177;-76
2022/11/14 12:25:56;;;;;;;4.30;3.90;;;24.40;57.10;;;;;;5033945;28;20202;-76
2022/11/14 12:28:40;;;;;;;4.30;3.78;;;24.60;55.90;;;;;;5038639;28;20216;-76
2022/11/14 12:31:12;;;;;;;4.40;4.10;;;25.20;55.80;;;;;;5019795;28;20177;-76
2022/11/14 12:33:45;;;;;;;4.50;4.05;;;26.40;54.70;;;;;;5018026;28;20181;-76
2022/11/14 12:36:12;;;;;;;4.10;3.80;;;28.30;50.40;;;;;;5019137;28;20191;-77
2022/11/14 12:38:52;;;;;;;4.18;3.83;;;29.30;48.80;;;;;;5015976;28;20224;-77
2022/11/14 12:41:31;;;;;;;3.80;3.50;;;30.20;47.30;;;;;;5023460;28;20512;-77
2022/11/14 12:44:25;;;;;;;4.03;3.72;;;30.40;46.80;;;;;;5025972;28;20177;-77
2022/11/14 12:47:06;;;;;;;4.72;3.92;;;30.10;48.30;;;;;;5015281;28;20197;-78
2022/11/14 12:49:57;;;;;;;3.63;3.40;;;29.00;47.60;;;;;;5018606;28;20283;-78
2022/11/14 12:52:42;;;;;;;3.65;3.45;;;28.40;49.70;;;;;;5016521;28;20268;-78
2022/11/14 12:55:23;;;;;;;4.20;3.80;;;27.20;51.10;;;;;;5019222;28;20175;-78
2022/11/14 12:58:08;;;;;;;3.67;3.47;;;26.10;53.40;;;;;;5018939;28;20205;-76